This is the latest recevied weather packets stored in our database for station/object KK7MLS-13. If no packets are shown the sender has not sent any weather packets the latest 10 day(s).
| Time | Temp. | Humidity | Pressure | Rain* | Wind** | Luminosity | Snow |
|---|---|---|---|---|---|---|---|
| 1777923621 | 18.89° C | 67% | 1013.8 hPa | 0 mm | - | 817 W/m² | - |
| 1777923318 | 17.78° C | 69% | 1013.9 hPa | 0 mm | - | 798 W/m² | - |
| 1777923017 | 17.22° C | 72% | 1013.8 hPa | 0 mm | - | 571 W/m² | - |
| 1777922714 | 17.22° C | 69% | 1014.1 hPa | 0 mm | - | 291 W/m² | - |
| 1777922412 | 16.67° C | 71% | 1013.8 hPa | 0 mm | - | 524 W/m² | - |
| 1777922110 | 16.67° C | 71% | 1013.9 hPa | 0 mm | - | 399 W/m² | - |
| 1777921806 | 16.67° C | 71% | 1013.9 hPa | 0 mm | - | 254 W/m² | - |
| 1777921501 | 16.67° C | 72% | 1014.1 hPa | 0 mm | - | 234 W/m² | - |
| 1777921197 | 16.11° C | 73% | 1014 hPa | 0 mm | - | 257 W/m² | - |
| 1777920895 | 16.11° C | 74% | 1014.1 hPa | 0 mm | - | 255 W/m² | - |
| 1777920592 | 15.56° C | 74% | 1014.2 hPa | 0 mm | - | 224 W/m² | - |
| 1777920287 | 15.56° C | 75% | 1014.2 hPa | 0 mm | - | 213 W/m² | - |
| 1777919983 | 15° C | 76% | 1014.3 hPa | 0 mm | - | 201 W/m² | - |
| 1777919680 | 15° C | 76% | 1014.1 hPa | 0 mm | - | 194 W/m² | - |
| 1777919378 | 15° C | 77% | 1014.1 hPa | 0 mm | - | 186 W/m² | - |
| 1777919075 | 14.44° C | 78% | 1014.1 hPa | 0 mm | - | 182 W/m² | - |
| 1777918772 | 14.44° C | 77% | 1014.2 hPa | 0 mm | - | 154 W/m² | - |
| 1777918469 | 15° C | 77% | 1014 hPa | 0 mm | - | 155 W/m² | - |
| 1777918168 | 15° C | 76% | 1014 hPa | 0 mm | - | 155 W/m² | - |
| 1777917866 | 15° C | 77% | 1014.1 hPa | 0 mm | - | 151 W/m² | - |
| 1777917564 | 15° C | 77% | 1014 hPa | 0 mm | - | 140 W/m² | - |
| 1777917261 | 15° C | 78% | 1014 hPa | 0 mm | - | 132 W/m² | - |
| 1777916959 | 14.44° C | 78% | 1014 hPa | 0 mm | - | 137 W/m² | - |
| 1777916656 | 14.44° C | 79% | 1014.1 hPa | 0 mm | - | 136 W/m² | - |
| 1777916353 | 13.89° C | 79% | 1014 hPa | 0 mm | - | 144 W/m² | - |
* Rain latest hour (hover to see other rain measurements)
** Current wind speed in m/s (hover to see current wind gust speed)